createdAt,value
2022-11-27T00:01:19.119Z,15.60
2022-11-27T00:03:46.339Z,11.97
2022-11-27T00:06:19.271Z,15.20
2022-11-27T00:08:46.609Z,18.40
2022-11-27T00:11:16.437Z,16.27
2022-11-27T00:13:43.332Z,20.50
2022-11-27T00:16:10.370Z,18.73
2022-11-27T00:18:37.572Z,23.17
2022-11-27T00:21:06.321Z,20.20
2022-11-27T00:23:33.435Z,17.63
2022-11-27T00:25:59.903Z,26.03
2022-11-27T00:28:28.928Z,28.13
2022-11-27T00:31:04.465Z,17.50
2022-11-27T00:33:31.582Z,19.60
2022-11-27T00:36:03.201Z,20.80
2022-11-27T00:38:30.482Z,24.10
2022-11-27T00:41:15.597Z,22.10
2022-11-27T00:43:45.027Z,18.43
2022-11-27T00:46:13.712Z,19.33
2022-11-27T00:48:40.659Z,16.37
2022-11-27T00:51:08.879Z,18.80
2022-11-27T00:53:35.751Z,20.43
2022-11-27T00:56:02.676Z,17.83
2022-11-27T00:58:30.521Z,15.83
2022-11-27T01:00:59.009Z,20.57
2022-11-27T01:03:26.515Z,17.33
2022-11-27T01:05:53.173Z,24.53
2022-11-27T01:08:19.900Z,23.60
2022-11-27T01:10:54.766Z,17.63
2022-11-27T01:13:26.942Z,18.87
2022-11-27T01:16:06.113Z,17.27
2022-11-27T01:18:34.050Z,20.33
2022-11-27T01:21:00.842Z,20.87
2022-11-27T01:23:27.593Z,21.90
2022-11-27T01:25:55.112Z,22.63
2022-11-27T01:28:24.596Z,22.20
2022-11-27T01:30:51.885Z,25.30
2022-11-27T01:33:19.024Z,21.63
2022-11-27T01:36:00.043Z,24.33
2022-11-27T01:38:27.682Z,19.67
2022-11-27T01:40:59.589Z,21.40
2022-11-27T01:43:47.858Z,22.13
2022-11-27T01:46:40.379Z,21.47
2022-11-27T01:49:09.872Z,24.70
2022-11-27T01:51:39.905Z,22.17
2022-11-27T01:54:09.159Z,20.63
2022-11-27T01:56:36.278Z,21.13
2022-11-27T01:59:03.744Z,22.07
2022-11-27T02:01:30.336Z,22.37
2022-11-27T02:03:59.507Z,21.77
2022-11-27T02:06:26.105Z,21.50
2022-11-27T02:08:52.785Z,22.03
2022-11-27T02:11:25.696Z,20.53
2022-11-27T02:14:26.467Z,18.60
2022-11-27T02:17:02.828Z,24.40
2022-11-27T02:20:20.554Z,21.50
2022-11-27T02:22:46.958Z,21.60
2022-11-27T02:25:18.138Z,20.87
2022-11-27T02:28:02.469Z,20.70
2022-11-27T02:30:35.434Z,19.50
2022-11-27T02:33:09.310Z,21.00
2022-11-27T02:35:48.005Z,21.83
2022-11-27T02:38:23.175Z,19.50
2022-11-27T02:40:56.204Z,20.40
2022-11-27T02:43:29.539Z,22.83
2022-11-27T02:45:57.681Z,24.40
2022-11-27T02:48:31.206Z,24.47
2022-11-27T02:50:57.665Z,23.83
2022-11-27T02:53:39.317Z,26.17
2022-11-27T02:56:14.701Z,25.90
2022-11-27T02:58:42.176Z,24.20
2022-11-27T03:01:12.373Z,21.90
2022-11-27T03:03:44.112Z,23.13
2022-11-27T03:06:14.240Z,26.53
2022-11-27T03:08:56.677Z,25.67
2022-11-27T03:11:23.416Z,24.77
2022-11-27T03:13:54.835Z,25.27
2022-11-27T03:17:03.237Z,22.13
2022-11-27T03:19:42.983Z,21.00
2022-11-27T03:22:10.703Z,20.77
2022-11-27T03:24:37.610Z,21.93
2022-11-27T03:27:07.080Z,20.17
2022-11-27T03:29:39.444Z,22.20
2022-11-27T03:32:06.021Z,22.27
2022-11-27T03:34:33.363Z,26.10
2022-11-27T03:37:00.795Z,23.10
2022-11-27T03:39:28.912Z,25.60
2022-11-27T03:42:05.557Z,28.77
2022-11-27T03:44:48.297Z,61.37
2022-11-27T03:47:35.465Z,21.97
2022-11-27T03:50:14.294Z,20.37
2022-11-27T03:52:56.049Z,23.27
2022-11-27T03:55:44.327Z,26.70
2022-11-27T03:58:29.349Z,27.67
2022-11-27T04:01:00.376Z,22.03
2022-11-27T04:03:30.871Z,24.87
2022-11-27T04:05:57.736Z,52.43
2022-11-27T04:08:24.240Z,49.23
2022-11-27T04:10:50.789Z,21.37
2022-11-27T04:13:17.260Z,24.00
2022-11-27T04:15:43.803Z,36.13
2022-11-27T04:18:11.511Z,24.87
2022-11-27T04:20:38.112Z,32.40
2022-11-27T04:23:04.774Z,28.40
2022-11-27T04:25:32.368Z,31.07
2022-11-27T04:27:58.866Z,24.63
2022-11-27T04:30:25.290Z,33.30
2022-11-27T04:32:51.802Z,20.43
2022-11-27T04:35:18.316Z,78.37
2022-11-27T04:37:44.807Z,22.90
2022-11-27T04:40:12.056Z,28.23
2022-11-27T04:42:38.511Z,40.57
2022-11-27T04:45:05.627Z,33.47
2022-11-27T04:47:32.080Z,49.23
2022-11-27T04:49:58.527Z,40.33
2022-11-27T04:52:24.975Z,30.70
2022-11-27T04:54:55.364Z,22.73
2022-11-27T04:57:25.048Z,96.20
2022-11-27T04:59:51.537Z,26.90
2022-11-27T05:02:18.044Z,17.90
2022-11-27T05:04:45.158Z,18.20
2022-11-27T05:07:11.704Z,17.67
2022-11-27T05:09:38.189Z,15.30
2022-11-27T05:12:04.928Z,17.30
2022-11-27T05:14:31.560Z,20.93
2022-11-27T05:16:59.112Z,20.40
2022-11-27T05:19:28.361Z,20.10
2022-11-27T05:21:56.728Z,19.17
2022-11-27T05:24:25.764Z,17.20
2022-11-27T05:26:53.065Z,21.77
2022-11-27T05:29:20.268Z,15.50
2022-11-27T05:31:47.144Z,18.10
2022-11-27T05:34:14.752Z,22.27
2022-11-27T05:36:41.788Z,19.17
2022-11-27T05:39:09.760Z,20.43
2022-11-27T05:41:38.272Z,14.50
2022-11-27T05:44:06.377Z,11.47
2022-11-27T05:46:33.481Z,10.50
2022-11-27T05:49:00.131Z,10.20
2022-11-27T05:51:26.650Z,12.37
2022-11-27T05:53:53.073Z,15.77
2022-11-27T05:56:19.626Z,14.13
2022-11-27T05:58:47.643Z,26.03
2022-11-27T06:01:16.204Z,19.43
2022-11-27T06:03:42.768Z,14.97
2022-11-27T06:06:13.299Z,14.17
2022-11-27T06:08:40.943Z,16.30
2022-11-27T06:11:09.177Z,17.53
2022-11-27T06:13:36.393Z,16.27
2022-11-27T06:16:14.774Z,16.70
2022-11-27T06:18:41.289Z,13.63
2022-11-27T06:21:09.463Z,15.17
2022-11-27T06:23:36.514Z,17.63
2022-11-27T06:26:14.270Z,16.90
2022-11-27T06:28:41.176Z,14.33
2022-11-27T06:31:17.576Z,14.53
2022-11-27T06:33:44.732Z,15.37
2022-11-27T06:36:11.346Z,14.43
2022-11-27T06:38:38.337Z,18.80
2022-11-27T06:41:10.537Z,19.67
2022-11-27T06:43:37.499Z,13.70
2022-11-27T06:46:06.098Z,16.07
2022-11-27T06:48:34.004Z,14.73
2022-11-27T06:51:01.915Z,14.47
2022-11-27T06:53:30.144Z,15.03
2022-11-27T06:55:57.011Z,15.80
2022-11-27T06:58:29.400Z,13.27
2022-11-27T07:00:59.262Z,14.27
2022-11-27T07:03:26.745Z,12.33
2022-11-27T07:05:53.721Z,13.23
2022-11-27T07:08:20.971Z,12.80
2022-11-27T07:10:47.542Z,12.43
2022-11-27T07:13:14.042Z,10.83
2022-11-27T07:15:40.466Z,10.00
2022-11-27T07:18:06.994Z,9.00
2022-11-27T07:20:33.453Z,9.50
2022-11-27T07:23:00.000Z,11.77
2022-11-27T07:25:32.500Z,11.33
2022-11-27T07:27:58.990Z,12.77
2022-11-27T07:30:25.450Z,10.37
2022-11-27T07:32:51.863Z,13.27
2022-11-27T07:35:18.530Z,10.73
2022-11-27T07:37:44.957Z,9.17
2022-11-27T07:40:13.041Z,11.83
2022-11-27T07:42:41.181Z,10.43
2022-11-27T07:45:08.584Z,10.50
2022-11-27T07:47:35.361Z,11.47
2022-11-27T07:50:02.010Z,9.30
2022-11-27T07:52:28.535Z,14.87
2022-11-27T07:54:55.023Z,7.77
2022-11-27T07:57:21.515Z,8.20
2022-11-27T07:59:48.166Z,9.23
2022-11-27T08:02:14.930Z,9.87
2022-11-27T08:04:41.842Z,12.17
2022-11-27T08:07:08.592Z,9.43
2022-11-27T08:09:35.058Z,10.93
2022-11-27T08:12:01.526Z,12.60
2022-11-27T08:14:28.040Z,12.37
2022-11-27T08:16:54.640Z,11.23
2022-11-27T08:19:22.353Z,10.30
2022-11-27T08:21:48.821Z,10.63
2022-11-27T08:24:15.433Z,10.37
2022-11-27T08:26:41.946Z,9.40
2022-11-27T08:29:11.551Z,9.13
2022-11-27T08:31:38.463Z,8.20
2022-11-27T08:34:05.108Z,9.97
2022-11-27T08:36:32.547Z,10.20
2022-11-27T08:38:59.169Z,10.03
2022-11-27T08:41:25.672Z,9.77
2022-11-27T08:43:52.105Z,9.40
2022-11-27T08:46:18.710Z,8.67
2022-11-27T08:48:45.217Z,8.77
2022-11-27T08:51:15.260Z,9.03
2022-11-27T08:53:45.435Z,9.70
2022-11-27T08:56:21.311Z,10.43
2022-11-27T08:58:48.596Z,8.07
2022-11-27T09:01:18.685Z,7.60
2022-11-27T09:03:46.051Z,8.53
2022-11-27T09:06:16.184Z,7.73
2022-11-27T09:08:43.603Z,11.57
2022-11-27T09:11:11.325Z,13.07
2022-11-27T09:13:40.045Z,9.63
2022-11-27T09:16:12.401Z,10.60
2022-11-27T09:18:39.201Z,8.13
2022-11-27T09:21:10.851Z,9.43
2022-11-27T09:23:38.460Z,13.50
2022-11-27T09:26:10.531Z,8.63
2022-11-27T09:28:38.168Z,7.67
2022-11-27T09:31:06.514Z,8.77
2022-11-27T09:33:35.234Z,7.13
2022-11-27T09:36:10.435Z,5.13
2022-11-27T09:38:37.688Z,36.20
2022-11-27T09:41:10.425Z,26.37
2022-11-27T09:43:44.493Z,10.40
2022-11-27T09:46:17.501Z,7.37
2022-11-27T09:48:48.339Z,5.57
2022-11-27T09:51:48.043Z,5.23
2022-11-27T09:54:46.760Z,4.80
2022-11-27T09:57:21.975Z,4.30
2022-11-27T09:59:53.590Z,7.10
2022-11-27T10:02:48.117Z,4.50
2022-11-27T10:05:24.201Z,4.53
2022-11-27T10:08:28.967Z,6.53
2022-11-27T10:11:11.720Z,4.00
2022-11-27T10:14:10.685Z,5.57
2022-11-27T10:16:44.748Z,5.20
2022-11-27T10:19:23.302Z,5.90
2022-11-27T10:21:59.560Z,5.10
2022-11-27T10:24:41.565Z,4.30
2022-11-27T10:27:29.230Z,4.40
2022-11-27T10:29:57.552Z,9.37
2022-11-27T10:32:54.524Z,6.37
2022-11-27T10:35:22.255Z,7.80
2022-11-27T10:38:06.827Z,5.17
2022-11-27T10:40:42.224Z,4.97
2022-11-27T10:43:24.134Z,3.63
2022-11-27T10:46:09.133Z,7.20
2022-11-27T10:48:35.743Z,6.20
2022-11-27T10:51:02.236Z,3.37
2022-11-27T10:53:35.421Z,3.33
2022-11-27T10:56:04.867Z,3.20
2022-11-27T10:58:41.840Z,3.50
2022-11-27T11:01:13.928Z,5.27
2022-11-27T11:03:40.679Z,4.20
2022-11-27T11:06:23.012Z,5.70
2022-11-27T11:09:15.188Z,10.23
2022-11-27T11:11:41.738Z,4.37
2022-11-27T11:14:19.115Z,2.60
2022-11-27T11:16:46.259Z,3.73
2022-11-27T11:19:30.952Z,4.50
2022-11-27T11:21:59.562Z,3.83
2022-11-27T11:24:29.648Z,3.60
2022-11-27T11:27:01.753Z,3.07
2022-11-27T11:29:38.765Z,2.60
2022-11-27T11:32:28.166Z,2.57
2022-11-27T11:35:01.124Z,2.40
2022-11-27T11:37:38.517Z,2.60
2022-11-27T11:40:16.318Z,1.97
2022-11-27T11:42:54.206Z,2.33
2022-11-27T11:45:22.485Z,3.63
2022-11-27T11:47:54.750Z,2.10
2022-11-27T11:51:05.581Z,2.53
2022-11-27T11:53:35.330Z,2.13
2022-11-27T11:56:23.019Z,2.10
2022-11-27T11:59:00.368Z,2.77
2022-11-27T12:01:45.267Z,3.30
2022-11-27T12:04:30.042Z,3.33
2022-11-27T12:07:06.322Z,2.17
2022-11-27T12:10:06.150Z,3.87
2022-11-27T12:12:51.032Z,4.17
2022-11-27T12:15:33.378Z,4.30
2022-11-27T12:18:21.190Z,2.97
2022-11-27T12:21:15.312Z,2.43
2022-11-27T12:24:01.120Z,1.80
2022-11-27T12:26:38.588Z,2.87
2022-11-27T12:29:23.811Z,5.80
2022-11-27T12:31:56.420Z,2.60
2022-11-27T12:34:27.785Z,4.37
2022-11-27T12:37:16.311Z,4.67
2022-11-27T12:40:11.826Z,4.97
2022-11-27T12:42:53.571Z,4.23
2022-11-27T12:45:27.459Z,4.93
2022-11-27T12:47:58.854Z,20.37
2022-11-27T12:50:45.417Z,9.77
2022-11-27T12:53:42.868Z,5.07
2022-11-27T12:56:18.575Z,3.93
2022-11-27T12:58:50.938Z,4.83
2022-11-27T13:01:26.781Z,4.10
2022-11-27T13:04:15.376Z,6.27
2022-11-27T13:07:03.317Z,7.40
2022-11-27T13:10:02.796Z,6.30
2022-11-27T13:12:37.595Z,3.07
2022-11-27T13:15:15.332Z,2.73
2022-11-27T13:17:44.430Z,4.50
2022-11-27T13:20:23.884Z,4.57
2022-11-27T13:22:50.999Z,4.17
2022-11-27T13:25:17.606Z,4.57
2022-11-27T13:27:49.220Z,3.03
2022-11-27T13:30:31.790Z,3.17
2022-11-27T13:33:03.631Z,4.17
2022-11-27T13:35:38.311Z,2.87
2022-11-27T13:38:10.849Z,2.97
2022-11-27T13:41:00.156Z,5.03
2022-11-27T13:43:43.258Z,3.97
2022-11-27T13:46:25.026Z,5.47
2022-11-27T13:49:03.665Z,4.77
2022-11-27T13:51:33.894Z,3.50
2022-11-27T13:54:12.038Z,5.23
2022-11-27T13:56:39.576Z,4.10
2022-11-27T13:59:16.757Z,2.83
2022-11-27T14:01:53.620Z,9.10
2022-11-27T14:04:20.197Z,2.07
2022-11-27T14:06:54.234Z,2.63
2022-11-27T14:09:42.557Z,8.93
2022-11-27T14:12:15.084Z,2.37
2022-11-27T14:14:43.695Z,2.23
2022-11-27T14:17:37.265Z,6.13
2022-11-27T14:20:23.397Z,10.70
2022-11-27T14:23:12.916Z,6.87
2022-11-27T14:25:41.240Z,8.60
2022-11-27T14:28:21.797Z,2.87
2022-11-27T14:30:52.853Z,12.37
2022-11-27T14:33:22.927Z,11.77
2022-11-27T14:35:55.783Z,8.60
2022-11-27T14:38:24.119Z,5.13
2022-11-27T14:40:55.783Z,3.57
2022-11-27T14:43:25.916Z,4.20
2022-11-27T14:45:55.932Z,4.87
2022-11-27T14:48:41.518Z,4.20
2022-11-27T14:51:14.020Z,3.27
2022-11-27T14:53:41.243Z,3.53
2022-11-27T14:56:08.069Z,3.63
2022-11-27T14:58:35.166Z,3.27
2022-11-27T15:01:05.639Z,3.57
2022-11-27T15:03:33.289Z,3.23
2022-11-27T15:06:05.710Z,4.93
2022-11-27T15:08:36.236Z,8.93
2022-11-27T15:11:05.236Z,4.37
2022-11-27T15:13:37.240Z,4.97
2022-11-27T15:16:07.374Z,2.90
2022-11-27T15:18:37.089Z,2.50
2022-11-27T15:21:17.628Z,4.30
2022-11-27T15:23:46.723Z,6.27
2022-11-27T15:26:25.714Z,3.47
2022-11-27T15:28:58.964Z,3.90
2022-11-27T15:31:30.101Z,3.80
2022-11-27T15:34:15.348Z,3.53
2022-11-27T15:36:44.128Z,2.83
2022-11-27T15:39:24.655Z,2.80
2022-11-27T15:42:02.357Z,3.03
2022-11-27T15:44:32.393Z,3.30
2022-11-27T15:47:01.479Z,2.97
2022-11-27T15:49:28.780Z,4.17
2022-11-27T15:51:56.614Z,6.50
2022-11-27T15:54:24.113Z,5.03
2022-11-27T15:56:50.799Z,3.27
2022-11-27T15:59:20.372Z,3.30
2022-11-27T16:01:47.001Z,4.00
2022-11-27T16:04:13.472Z,4.37
2022-11-27T16:06:40.077Z,6.53
2022-11-27T16:09:06.673Z,4.87
2022-11-27T16:11:33.139Z,4.10
2022-11-27T16:13:59.703Z,4.20
2022-11-27T16:16:26.745Z,5.10
2022-11-27T16:18:56.970Z,5.27
2022-11-27T16:21:29.242Z,5.00
2022-11-27T16:24:03.536Z,3.53
2022-11-27T16:26:30.946Z,3.93
2022-11-27T16:28:57.984Z,3.73
2022-11-27T16:31:26.493Z,4.47
2022-11-27T16:33:53.129Z,4.07
2022-11-27T16:36:22.971Z,4.53
2022-11-27T16:38:52.423Z,3.67
2022-11-27T16:41:19.285Z,4.03
2022-11-27T16:43:48.861Z,3.90
2022-11-27T16:46:26.192Z,3.53
2022-11-27T16:48:54.301Z,4.67
2022-11-27T16:51:32.171Z,4.90
2022-11-27T16:54:04.757Z,8.67
2022-11-27T16:56:32.718Z,3.50
2022-11-27T16:59:03.131Z,2.87
2022-11-27T17:01:36.687Z,3.70
2022-11-27T17:04:09.124Z,4.07
2022-11-27T17:06:37.976Z,3.33
2022-11-27T17:09:07.467Z,2.37
2022-11-27T17:11:35.923Z,2.67
2022-11-27T17:14:06.807Z,3.03
2022-11-27T17:16:35.372Z,3.07
2022-11-27T17:19:03.638Z,3.33
2022-11-27T17:21:33.359Z,4.27
2022-11-27T17:24:02.167Z,2.50
2022-11-27T17:26:35.107Z,5.10
2022-11-27T17:29:03.356Z,3.03
2022-11-27T17:31:37.005Z,4.30
2022-11-27T17:34:05.165Z,3.10
2022-11-27T17:36:37.144Z,5.10
2022-11-27T17:39:06.910Z,4.53
2022-11-27T17:41:34.569Z,3.30
2022-11-27T17:44:04.218Z,2.73
2022-11-27T17:46:32.291Z,3.07
2022-11-27T17:49:00.261Z,4.50
2022-11-27T17:51:30.183Z,6.03
2022-11-27T17:54:01.741Z,4.33
2022-11-27T17:56:31.109Z,3.77
2022-11-27T17:58:59.708Z,2.80
2022-11-27T18:01:29.003Z,4.57
2022-11-27T18:03:59.737Z,3.80
2022-11-27T18:06:27.188Z,3.57
2022-11-27T18:08:55.825Z,4.43
2022-11-27T18:11:27.740Z,5.37
2022-11-27T18:13:56.128Z,2.70
2022-11-27T18:16:31.731Z,6.57
2022-11-27T18:19:01.819Z,4.53
2022-11-27T18:21:28.613Z,22.30
2022-11-27T18:29:28.772Z,12.53
2022-11-27T18:31:55.314Z,11.20
2022-11-27T18:34:21.799Z,16.73
2022-11-27T18:36:48.240Z,16.60
2022-11-27T18:39:15.093Z,17.97
2022-11-27T18:41:41.558Z,12.97
2022-11-27T18:44:10.073Z,12.13
2022-11-27T18:46:38.250Z,11.87
2022-11-27T18:49:05.463Z,10.07
2022-11-27T18:51:32.271Z,15.30
2022-11-27T18:53:58.873Z,12.70
2022-11-27T18:56:28.480Z,27.73
2022-11-27T18:58:55.869Z,26.40
2022-11-27T19:01:27.878Z,13.33
2022-11-27T19:03:55.403Z,8.40
2022-11-27T19:06:26.402Z,5.80
2022-11-27T19:08:52.921Z,5.60
2022-11-27T19:11:22.132Z,4.50
2022-11-27T19:13:49.969Z,7.83
2022-11-27T19:16:29.723Z,6.47
2022-11-27T19:19:01.346Z,8.13
2022-11-27T19:21:30.481Z,10.87
2022-11-27T19:23:59.176Z,6.57
2022-11-27T19:26:28.368Z,9.20
2022-11-27T19:28:57.004Z,5.00
2022-11-27T19:31:25.579Z,7.13
2022-11-27T19:34:00.370Z,16.03
2022-11-27T19:36:32.289Z,8.63
2022-11-27T19:39:01.827Z,6.67
2022-11-27T19:41:30.695Z,3.90
2022-11-27T19:44:01.225Z,5.53
2022-11-27T19:46:29.848Z,4.03
2022-11-27T19:49:01.484Z,5.17
2022-11-27T19:51:31.924Z,4.77
2022-11-27T19:54:01.801Z,7.87
2022-11-27T19:56:33.497Z,14.77
2022-11-27T19:59:02.110Z,13.67
2022-11-27T20:01:29.199Z,10.70
2022-11-27T20:03:55.871Z,7.23
2022-11-27T20:06:26.145Z,15.03
2022-11-27T20:08:57.321Z,26.00
2022-11-27T20:11:26.662Z,9.47
2022-11-27T20:13:59.616Z,5.87
2022-11-27T20:16:27.466Z,5.63
2022-11-27T20:18:54.657Z,6.03
2022-11-27T20:21:25.152Z,5.80
2022-11-27T20:23:52.710Z,6.33
2022-11-27T20:26:22.275Z,5.97
2022-11-27T20:28:49.941Z,5.77
2022-11-27T20:31:25.765Z,7.57
2022-11-27T20:33:56.600Z,5.70
2022-11-27T20:36:24.909Z,9.13
2022-11-27T20:38:52.106Z,5.13
2022-11-27T20:41:21.025Z,7.07
2022-11-27T20:43:50.655Z,5.33
2022-11-27T20:46:17.972Z,5.97
2022-11-27T20:48:52.831Z,5.33
2022-11-27T20:51:22.795Z,5.20
2022-11-27T20:53:49.939Z,6.23
2022-11-27T20:56:19.546Z,6.53
2022-11-27T20:58:47.461Z,5.73
2022-11-27T21:01:22.900Z,8.10
2022-11-27T21:03:51.378Z,6.53
2022-11-27T21:06:20.714Z,6.80
2022-11-27T21:08:48.579Z,7.77
2022-11-27T21:11:18.513Z,10.10
2022-11-27T21:13:45.111Z,6.67
2022-11-27T21:16:14.293Z,6.30
2022-11-27T21:18:41.102Z,6.47
2022-11-27T21:21:09.492Z,5.33
2022-11-27T21:23:37.907Z,5.37
2022-11-27T21:26:05.885Z,5.33
2022-11-27T21:28:33.016Z,4.10
2022-11-27T21:31:07.684Z,5.80
2022-11-27T21:33:35.704Z,7.50
2022-11-27T21:36:03.240Z,6.10
2022-11-27T21:38:29.949Z,6.33
2022-11-27T21:40:57.195Z,7.50
2022-11-27T21:43:23.733Z,6.47
2022-11-27T21:45:51.119Z,6.50
2022-11-27T21:48:18.333Z,7.57
2022-11-27T21:50:44.861Z,5.33
2022-11-27T21:53:11.402Z,5.67
2022-11-27T21:55:42.240Z,6.83
2022-11-27T21:58:08.973Z,7.03
2022-11-27T22:00:36.771Z,7.60
2022-11-27T22:03:03.410Z,8.27
2022-11-27T22:05:30.024Z,4.63
2022-11-27T22:07:56.550Z,7.87
2022-11-27T22:10:23.028Z,5.53
2022-11-27T22:12:49.565Z,7.50
2022-11-27T22:15:16.201Z,6.40
2022-11-27T22:17:42.628Z,6.67
2022-11-27T22:20:09.371Z,6.73
2022-11-27T22:22:35.868Z,6.20
2022-11-27T22:25:04.520Z,5.17
2022-11-27T22:27:31.153Z,6.97
2022-11-27T22:29:57.574Z,5.97
2022-11-27T22:32:23.979Z,4.80
2022-11-27T22:34:51.043Z,6.13
2022-11-27T22:37:17.620Z,4.97
2022-11-27T22:39:44.448Z,5.60
2022-11-27T22:42:12.165Z,6.83
2022-11-27T22:44:39.119Z,8.17
2022-11-27T22:47:05.881Z,7.30
2022-11-27T22:49:32.539Z,5.97
2022-11-27T22:51:59.272Z,9.20
2022-11-27T22:54:25.795Z,6.40
2022-11-27T22:56:54.020Z,4.43
2022-11-27T22:59:36.834Z,4.93
2022-11-27T23:02:05.285Z,7.43
2022-11-27T23:04:33.377Z,6.30
2022-11-27T23:07:00.228Z,7.77
2022-11-27T23:09:28.404Z,5.43
2022-11-27T23:11:56.363Z,4.83
2022-11-27T23:14:23.997Z,5.73
2022-11-27T23:16:50.492Z,6.23
2022-11-27T23:19:17.345Z,7.07
2022-11-27T23:21:44.389Z,5.90
2022-11-27T23:24:15.139Z,5.33
2022-11-27T23:26:42.778Z,6.47
2022-11-27T23:29:09.287Z,5.30
2022-11-27T23:31:36.418Z,7.43
2022-11-27T23:34:07.356Z,6.50
2022-11-27T23:36:34.847Z,4.90
2022-11-27T23:39:03.057Z,5.80
2022-11-27T23:41:29.987Z,8.07
2022-11-27T23:43:56.978Z,6.57
2022-11-27T23:46:26.661Z,6.63
2022-11-27T23:48:54.938Z,8.13
2022-11-27T23:51:25.756Z,7.10
2022-11-27T23:53:53.180Z,7.40
2022-11-27T23:56:22.569Z,6.20
2022-11-27T23:58:49.391Z,7.17
